sensor_id;sensor_type;location;lat;lon;timestamp;temperature;humidity
23475;DHT22;11910;52.086;21.066;2022-09-02T00:02:13;11.00;84.90
23475;DHT22;11910;52.086;21.066;2022-09-02T00:04:41;10.90;82.20
23475;DHT22;11910;52.086;21.066;2022-09-02T00:07:06;10.80;83.00
23475;DHT22;11910;52.086;21.066;2022-09-02T00:09:32;10.70;83.00
23475;DHT22;11910;52.086;21.066;2022-09-02T00:11:58;10.70;81.80
23475;DHT22;11910;52.086;21.066;2022-09-02T00:14:34;10.60;80.90
23475;DHT22;11910;52.086;21.066;2022-09-02T00:17:00;10.60;81.40
23475;DHT22;11910;52.086;21.066;2022-09-02T00:19:28;10.50;82.20
23475;DHT22;11910;52.086;21.066;2022-09-02T00:21:55;10.40;82.90
23475;DHT22;11910;52.086;21.066;2022-09-02T00:24:25;10.40;82.60
23475;DHT22;11910;52.086;21.066;2022-09-02T00:26:51;10.40;84.40
23475;DHT22;11910;52.086;21.066;2022-09-02T00:29:17;10.40;84.70
23475;DHT22;11910;52.086;21.066;2022-09-02T00:31:43;10.60;86.30
23475;DHT22;11910;52.086;21.066;2022-09-02T00:34:10;10.70;84.60
23475;DHT22;11910;52.086;21.066;2022-09-02T00:36:36;10.70;83.10
23475;DHT22;11910;52.086;21.066;2022-09-02T00:39:04;10.60;81.80
23475;DHT22;11910;52.086;21.066;2022-09-02T00:41:32;10.70;83.70
23475;DHT22;11910;52.086;21.066;2022-09-02T00:44:10;10.80;85.00
23475;DHT22;11910;52.086;21.066;2022-09-02T00:46:36;10.90;85.80
23475;DHT22;11910;52.086;21.066;2022-09-02T00:49:24;10.90;83.90
23475;DHT22;11910;52.086;21.066;2022-09-02T00:51:53;11.00;85.00
23475;DHT22;11910;52.086;21.066;2022-09-02T00:54:20;10.90;82.50
23475;DHT22;11910;52.086;21.066;2022-09-02T00:56:48;10.90;81.70
23475;DHT22;11910;52.086;21.066;2022-09-02T00:59:26;10.80;81.50
23475;DHT22;11910;52.086;21.066;2022-09-02T01:01:52;10.80;83.00
23475;DHT22;11910;52.086;21.066;2022-09-02T01:04:18;10.80;84.00
23475;DHT22;11910;52.086;21.066;2022-09-02T01:06:43;10.70;84.00
23475;DHT22;11910;52.086;21.066;2022-09-02T01:09:12;10.80;83.90
23475;DHT22;11910;52.086;21.066;2022-09-02T01:11:42;10.80;84.80
23475;DHT22;11910;52.086;21.066;2022-09-02T01:14:09;10.90;84.80
23475;DHT22;11910;52.086;21.066;2022-09-02T01:16:44;10.90;84.80
23475;DHT22;11910;52.086;21.066;2022-09-02T01:19:41;11.00;84.00
23475;DHT22;11910;52.086;21.066;2022-09-02T01:22:17;10.90;84.00
23475;DHT22;11910;52.086;21.066;2022-09-02T01:24:43;10.90;85.00
23475;DHT22;11910;52.086;21.066;2022-09-02T01:27:14;10.70;85.00
23475;DHT22;11910;52.086;21.066;2022-09-02T01:29:40;10.70;85.00
23475;DHT22;11910;52.086;21.066;2022-09-02T01:32:05;10.60;85.50
23475;DHT22;11910;52.086;21.066;2022-09-02T01:34:31;10.60;84.90
23475;DHT22;11910;52.086;21.066;2022-09-02T01:36:57;10.50;85.30
23475;DHT22;11910;52.086;21.066;2022-09-02T01:39:23;10.50;85.10
23475;DHT22;11910;52.086;21.066;2022-09-02T01:41:48;10.40;85.90
23475;DHT22;11910;52.086;21.066;2022-09-02T01:44:14;10.30;85.60
23475;DHT22;11910;52.086;21.066;2022-09-02T01:46:42;10.30;85.10
23475;DHT22;11910;52.086;21.066;2022-09-02T01:49:08;10.30;84.30
23475;DHT22;11910;52.086;21.066;2022-09-02T01:51:34;10.20;86.80
23475;DHT22;11910;52.086;21.066;2022-09-02T01:54:00;10.30;86.90
23475;DHT22;11910;52.086;21.066;2022-09-02T01:56:26;10.30;85.70
23475;DHT22;11910;52.086;21.066;2022-09-02T01:58:51;10.30;85.50
23475;DHT22;11910;52.086;21.066;2022-09-02T02:01:17;10.30;85.50
23475;DHT22;11910;52.086;21.066;2022-09-02T02:03:43;10.30;86.20
23475;DHT22;11910;52.086;21.066;2022-09-02T02:06:10;10.30;85.00
23475;DHT22;11910;52.086;21.066;2022-09-02T02:08:37;10.40;85.40
23475;DHT22;11910;52.086;21.066;2022-09-02T02:11:03;10.30;83.20
23475;DHT22;11910;52.086;21.066;2022-09-02T02:13:29;10.30;84.00
23475;DHT22;11910;52.086;21.066;2022-09-02T02:15:55;10.20;83.60
23475;DHT22;11910;52.086;21.066;2022-09-02T02:18:21;10.20;84.80
23475;DHT22;11910;52.086;21.066;2022-09-02T02:20:47;10.20;85.70
23475;DHT22;11910;52.086;21.066;2022-09-02T02:23:13;10.20;84.80
23475;DHT22;11910;52.086;21.066;2022-09-02T02:25:38;10.10;83.10
23475;DHT22;11910;52.086;21.066;2022-09-02T02:28:04;10.00;83.50
23475;DHT22;11910;52.086;21.066;2022-09-02T02:30:30;9.90;83.80
23475;DHT22;11910;52.086;21.066;2022-09-02T02:32:56;9.90;85.20
23475;DHT22;11910;52.086;21.066;2022-09-02T02:35:22;9.80;84.00
23475;DHT22;11910;52.086;21.066;2022-09-02T02:37:48;9.90;85.80
23475;DHT22;11910;52.086;21.066;2022-09-02T02:40:17;9.90;85.20
23475;DHT22;11910;52.086;21.066;2022-09-02T02:42:43;9.90;86.10
23475;DHT22;11910;52.086;21.066;2022-09-02T02:45:09;9.90;86.00
23475;DHT22;11910;52.086;21.066;2022-09-02T02:47:41;10.10;86.40
23475;DHT22;11910;52.086;21.066;2022-09-02T02:50:09;10.10;85.70
23475;DHT22;11910;52.086;21.066;2022-09-02T02:52:36;10.10;83.10
23475;DHT22;11910;52.086;21.066;2022-09-02T02:55:02;10.00;83.30
23475;DHT22;11910;52.086;21.066;2022-09-02T02:57:28;9.90;84.00
23475;DHT22;11910;52.086;21.066;2022-09-02T02:59:53;9.80;83.50
23475;DHT22;11910;52.086;21.066;2022-09-02T03:02:19;9.80;83.70
23475;DHT22;11910;52.086;21.066;2022-09-02T03:04:45;9.80;83.10
23475;DHT22;11910;52.086;21.066;2022-09-02T03:07:10;9.60;82.70
23475;DHT22;11910;52.086;21.066;2022-09-02T03:09:36;9.60;82.50
23475;DHT22;11910;52.086;21.066;2022-09-02T03:12:02;9.50;82.90
23475;DHT22;11910;52.086;21.066;2022-09-02T03:14:28;9.50;82.40
23475;DHT22;11910;52.086;21.066;2022-09-02T03:16:53;9.40;81.60
23475;DHT22;11910;52.086;21.066;2022-09-02T03:19:19;9.40;82.50
23475;DHT22;11910;52.086;21.066;2022-09-02T03:21:45;9.30;83.80
23475;DHT22;11910;52.086;21.066;2022-09-02T03:24:11;9.40;85.80
23475;DHT22;11910;52.086;21.066;2022-09-02T03:26:39;9.50;85.70
23475;DHT22;11910;52.086;21.066;2022-09-02T03:29:05;9.70;85.60
23475;DHT22;11910;52.086;21.066;2022-09-02T03:31:31;9.70;84.50
23475;DHT22;11910;52.086;21.066;2022-09-02T03:33:57;9.60;83.00
23475;DHT22;11910;52.086;21.066;2022-09-02T03:36:26;9.50;82.90
23475;DHT22;11910;52.086;21.066;2022-09-02T03:38:53;9.40;83.00
23475;DHT22;11910;52.086;21.066;2022-09-02T03:41:19;9.30;83.40
23475;DHT22;11910;52.086;21.066;2022-09-02T03:43:45;9.30;83.30
23475;DHT22;11910;52.086;21.066;2022-09-02T03:46:11;9.30;85.30
23475;DHT22;11910;52.086;21.066;2022-09-02T03:48:38;9.40;86.00
23475;DHT22;11910;52.086;21.066;2022-09-02T03:51:04;9.40;85.00
23475;DHT22;11910;52.086;21.066;2022-09-02T03:53:30;9.30;82.50
23475;DHT22;11910;52.086;21.066;2022-09-02T03:55:56;9.30;82.40
23475;DHT22;11910;52.086;21.066;2022-09-02T03:58:21;9.20;83.70
23475;DHT22;11910;52.086;21.066;2022-09-02T04:00:52;9.20;84.30
23475;DHT22;11910;52.086;21.066;2022-09-02T04:03:18;9.20;84.80
23475;DHT22;11910;52.086;21.066;2022-09-02T04:05:46;9.20;85.00
23475;DHT22;11910;52.086;21.066;2022-09-02T04:08:12;9.10;86.00
23475;DHT22;11910;52.086;21.066;2022-09-02T04:10:38;9.20;84.70
23475;DHT22;11910;52.086;21.066;2022-09-02T04:13:03;9.20;85.10
23475;DHT22;11910;52.086;21.066;2022-09-02T04:15:29;9.10;85.20
23475;DHT22;11910;52.086;21.066;2022-09-02T04:17:55;9.10;84.10
23475;DHT22;11910;52.086;21.066;2022-09-02T04:20:21;9.10;84.10
23475;DHT22;11910;52.086;21.066;2022-09-02T04:22:47;9.00;84.10
23475;DHT22;11910;52.086;21.066;2022-09-02T04:25:13;9.00;85.70
23475;DHT22;11910;52.086;21.066;2022-09-02T04:27:38;9.10;87.00
23475;DHT22;11910;52.086;21.066;2022-09-02T04:30:06;9.10;86.70
23475;DHT22;11910;52.086;21.066;2022-09-02T04:32:32;9.10;86.70
23475;DHT22;11910;52.086;21.066;2022-09-02T04:34:58;9.20;87.30
23475;DHT22;11910;52.086;21.066;2022-09-02T04:37:25;9.30;88.80
23475;DHT22;11910;52.086;21.066;2022-09-02T04:39:51;9.30;89.20
23475;DHT22;11910;52.086;21.066;2022-09-02T04:42:17;9.40;90.10
23475;DHT22;11910;52.086;21.066;2022-09-02T04:44:42;9.60;90.40
23475;DHT22;11910;52.086;21.066;2022-09-02T04:47:10;9.90;90.20
23475;DHT22;11910;52.086;21.066;2022-09-02T04:49:36;10.20;90.10
23475;DHT22;11910;52.086;21.066;2022-09-02T04:52:02;10.40;90.10
23475;DHT22;11910;52.086;21.066;2022-09-02T04:54:28;10.60;90.10
23475;DHT22;11910;52.086;21.066;2022-09-02T04:56:54;10.80;90.10
23475;DHT22;11910;52.086;21.066;2022-09-02T04:59:20;11.10;90.10
23475;DHT22;11910;52.086;21.066;2022-09-02T05:01:46;11.30;90.30
23475;DHT22;11910;52.086;21.066;2022-09-02T05:04:12;11.30;90.40
23475;DHT22;11910;52.086;21.066;2022-09-02T05:06:38;11.50;90.70
23475;DHT22;11910;52.086;21.066;2022-09-02T05:09:05;11.50;91.10
23475;DHT22;11910;52.086;21.066;2022-09-02T05:11:33;11.70;91.10
23475;DHT22;11910;52.086;21.066;2022-09-02T05:14:03;11.80;91.20
23475;DHT22;11910;52.086;21.066;2022-09-02T05:16:35;11.90;90.90
23475;DHT22;11910;52.086;21.066;2022-09-02T05:19:01;12.10;91.10
23475;DHT22;11910;52.086;21.066;2022-09-02T05:21:28;12.20;90.40
23475;DHT22;11910;52.086;21.066;2022-09-02T05:23:55;12.40;90.00
23475;DHT22;11910;52.086;21.066;2022-09-02T05:26:22;12.60;89.50
23475;DHT22;11910;52.086;21.066;2022-09-02T05:28:48;12.70;88.60
23475;DHT22;11910;52.086;21.066;2022-09-02T05:31:16;12.90;87.60
23475;DHT22;11910;52.086;21.066;2022-09-02T05:33:42;13.00;87.30
23475;DHT22;11910;52.086;21.066;2022-09-02T05:36:14;13.10;86.60
23475;DHT22;11910;52.086;21.066;2022-09-02T05:38:41;13.20;86.90
23475;DHT22;11910;52.086;21.066;2022-09-02T05:41:08;13.30;88.40
23475;DHT22;11910;52.086;21.066;2022-09-02T05:43:39;13.40;88.00
23475;DHT22;11910;52.086;21.066;2022-09-02T05:46:07;13.50;87.60
23475;DHT22;11910;52.086;21.066;2022-09-02T05:48:34;13.50;88.70
23475;DHT22;11910;52.086;21.066;2022-09-02T05:51:19;13.60;88.30
23475;DHT22;11910;52.086;21.066;2022-09-02T05:53:45;13.60;87.70
23475;DHT22;11910;52.086;21.066;2022-09-02T05:56:11;13.70;87.50
23475;DHT22;11910;52.086;21.066;2022-09-02T05:58:37;13.80;86.80
23475;DHT22;11910;52.086;21.066;2022-09-02T06:01:07;13.90;85.80
23475;DHT22;11910;52.086;21.066;2022-09-02T06:03:33;14.00;85.30
23475;DHT22;11910;52.086;21.066;2022-09-02T06:05:59;14.10;85.90
23475;DHT22;11910;52.086;21.066;2022-09-02T06:08:25;14.20;86.30
23475;DHT22;11910;52.086;21.066;2022-09-02T06:10:50;14.30;85.50
23475;DHT22;11910;52.086;21.066;2022-09-02T06:13:16;14.40;85.30
23475;DHT22;11910;52.086;21.066;2022-09-02T06:15:45;14.60;84.90
23475;DHT22;11910;52.086;21.066;2022-09-02T06:18:11;14.80;85.40
23475;DHT22;11910;52.086;21.066;2022-09-02T06:20:45;15.00;83.00
23475;DHT22;11910;52.086;21.066;2022-09-02T06:23:13;15.30;82.30
23475;DHT22;11910;52.086;21.066;2022-09-02T06:25:40;15.60;81.40
23475;DHT22;11910;52.086;21.066;2022-09-02T06:28:06;16.10;80.50
23475;DHT22;11910;52.086;21.066;2022-09-02T06:30:32;16.90;77.60
23475;DHT22;11910;52.086;21.066;2022-09-02T06:32:58;17.60;75.10
23475;DHT22;11910;52.086;21.066;2022-09-02T06:35:27;18.00;73.20
23475;DHT22;11910;52.086;21.066;2022-09-02T06:37:54;17.90;74.40
23475;DHT22;11910;52.086;21.066;2022-09-02T06:40:19;17.40;75.50
23475;DHT22;11910;52.086;21.066;2022-09-02T06:42:45;17.10;76.00
23475;DHT22;11910;52.086;21.066;2022-09-02T06:45:12;16.90;76.70
23475;DHT22;11910;52.086;21.066;2022-09-02T06:47:38;16.70;77.50
23475;DHT22;11910;52.086;21.066;2022-09-02T06:50:04;16.60;77.20
23475;DHT22;11910;52.086;21.066;2022-09-02T06:52:29;16.60;78.60
23475;DHT22;11910;52.086;21.066;2022-09-02T06:54:55;16.50;77.60
23475;DHT22;11910;52.086;21.066;2022-09-02T06:57:21;16.50;78.50
23475;DHT22;11910;52.086;21.066;2022-09-02T06:59:47;16.50;79.80
23475;DHT22;11910;52.086;21.066;2022-09-02T07:02:13;16.50;79.40
23475;DHT22;11910;52.086;21.066;2022-09-02T07:04:39;16.50;79.30
23475;DHT22;11910;52.086;21.066;2022-09-02T07:07:24;16.50;77.70
23475;DHT22;11910;52.086;21.066;2022-09-02T07:09:50;16.60;78.30
23475;DHT22;11910;52.086;21.066;2022-09-02T07:12:16;16.50;77.20
23475;DHT22;11910;52.086;21.066;2022-09-02T07:14:44;16.50;76.90
23475;DHT22;11910;52.086;21.066;2022-09-02T07:17:11;16.60;77.10
23475;DHT22;11910;52.086;21.066;2022-09-02T07:19:42;16.60;78.10
23475;DHT22;11910;52.086;21.066;2022-09-02T07:22:09;16.70;77.50
23475;DHT22;11910;52.086;21.066;2022-09-02T07:24:35;16.80;78.40
23475;DHT22;11910;52.086;21.066;2022-09-02T07:27:02;17.00;79.30
23475;DHT22;11910;52.086;21.066;2022-09-02T07:29:28;17.00;76.30
23475;DHT22;11910;52.086;21.066;2022-09-02T07:31:54;17.10;76.00
23475;DHT22;11910;52.086;21.066;2022-09-02T07:34:20;17.20;76.60
23475;DHT22;11910;52.086;21.066;2022-09-02T07:36:46;17.30;79.00
23475;DHT22;11910;52.086;21.066;2022-09-02T07:39:13;17.40;77.60
23475;DHT22;11910;52.086;21.066;2022-09-02T07:41:41;17.40;77.80
23475;DHT22;11910;52.086;21.066;2022-09-02T07:44:07;17.50;77.60
23475;DHT22;11910;52.086;21.066;2022-09-02T07:46:34;17.60;75.70
23475;DHT22;11910;52.086;21.066;2022-09-02T07:49:01;17.60;73.70
23475;DHT22;11910;52.086;21.066;2022-09-02T07:51:30;17.70;74.30
23475;DHT22;11910;52.086;21.066;2022-09-02T07:53:57;17.80;74.70
23475;DHT22;11910;52.086;21.066;2022-09-02T07:56:22;17.80;73.80
23475;DHT22;11910;52.086;21.066;2022-09-02T07:58:48;17.90;71.30
23475;DHT22;11910;52.086;21.066;2022-09-02T08:01:14;18.00;72.40
23475;DHT22;11910;52.086;21.066;2022-09-02T08:03:41;18.00;70.70
23475;DHT22;11910;52.086;21.066;2022-09-02T08:06:10;18.10;73.10
23475;DHT22;11910;52.086;21.066;2022-09-02T08:08:36;18.20;72.90
23475;DHT22;11910;52.086;21.066;2022-09-02T08:11:03;18.20;72.90
23475;DHT22;11910;52.086;21.066;2022-09-02T08:13:29;18.30;71.70
23475;DHT22;11910;52.086;21.066;2022-09-02T08:15:54;18.40;71.40
23475;DHT22;11910;52.086;21.066;2022-09-02T08:18:20;18.50;73.10
23475;DHT22;11910;52.086;21.066;2022-09-02T08:20:46;18.60;71.80
23475;DHT22;11910;52.086;21.066;2022-09-02T08:23:12;18.70;69.30
23475;DHT22;11910;52.086;21.066;2022-09-02T08:25:39;18.70;68.60
23475;DHT22;11910;52.086;21.066;2022-09-02T08:28:05;18.80;67.20
23475;DHT22;11910;52.086;21.066;2022-09-02T08:30:31;18.90;67.10
23475;DHT22;11910;52.086;21.066;2022-09-02T08:32:57;18.90;65.20
23475;DHT22;11910;52.086;21.066;2022-09-02T08:35:24;19.10;67.10
23475;DHT22;11910;52.086;21.066;2022-09-02T08:37:50;19.20;67.80
23475;DHT22;11910;52.086;21.066;2022-09-02T08:40:18;19.20;65.20
23475;DHT22;11910;52.086;21.066;2022-09-02T08:42:51;19.30;64.30
23475;DHT22;11910;52.086;21.066;2022-09-02T08:45:32;19.40;64.80
23475;DHT22;11910;52.086;21.066;2022-09-02T08:48:09;19.50;61.40
23475;DHT22;11910;52.086;21.066;2022-09-02T08:50:39;19.50;61.60
23475;DHT22;11910;52.086;21.066;2022-09-02T08:53:35;19.50;63.10
23475;DHT22;11910;52.086;21.066;2022-09-02T08:56:04;19.60;61.60
23475;DHT22;11910;52.086;21.066;2022-09-02T08:58:40;19.70;61.00
23475;DHT22;11910;52.086;21.066;2022-09-02T09:04:05;19.80;61.80
23475;DHT22;11910;52.086;21.066;2022-09-02T09:14:56;20.20;59.90
23475;DHT22;11910;52.086;21.066;2022-09-02T09:17:55;20.40;62.80
23475;DHT22;11910;52.086;21.066;2022-09-02T09:20:32;20.70;59.20
23475;DHT22;11910;52.086;21.066;2022-09-02T09:23:00;21.00;59.40
23475;DHT22;11910;52.086;21.066;2022-09-02T09:25:28;21.30;56.90
23475;DHT22;11910;52.086;21.066;2022-09-02T09:28:03;22.10;57.20
23475;DHT22;11910;52.086;21.066;2022-09-02T09:30:28;24.70;51.30
23475;DHT22;11910;52.086;21.066;2022-09-02T09:32:55;26.80;49.80
23475;DHT22;11910;52.086;21.066;2022-09-02T09:35:22;27.90;47.20
23475;DHT22;11910;52.086;21.066;2022-09-02T09:37:50;29.30;45.90
23475;DHT22;11910;52.086;21.066;2022-09-02T09:42:49;31.60;41.30
23475;DHT22;11910;52.086;21.066;2022-09-02T09:50:39;28.10;44.10
23475;DHT22;11910;52.086;21.066;2022-09-02T09:58:20;32.00;38.30
23475;DHT22;11910;52.086;21.066;2022-09-02T10:00:46;32.30;37.30
23475;DHT22;11910;52.086;21.066;2022-09-02T10:03:21;32.50;37.30
23475;DHT22;11910;52.086;21.066;2022-09-02T10:05:51;32.10;38.60
23475;DHT22;11910;52.086;21.066;2022-09-02T10:08:21;31.90;38.10
23475;DHT22;11910;52.086;21.066;2022-09-02T10:11:22;31.30;37.90
23475;DHT22;11910;52.086;21.066;2022-09-02T10:13:48;29.80;39.60
23475;DHT22;11910;52.086;21.066;2022-09-02T10:27:06;29.20;39.70
23475;DHT22;11910;52.086;21.066;2022-09-02T10:29:49;29.20;40.00
23475;DHT22;11910;52.086;21.066;2022-09-02T10:35:20;29.20;39.20
23475;DHT22;11910;52.086;21.066;2022-09-02T10:40:43;28.90;39.20
23475;DHT22;11910;52.086;21.066;2022-09-02T10:46:00;28.10;40.60
23475;DHT22;11910;52.086;21.066;2022-09-02T10:56:44;27.50;40.20
23475;DHT22;11910;52.086;21.066;2022-09-02T10:59:43;27.00;40.80
23475;DHT22;11910;52.086;21.066;2022-09-02T11:02:24;27.30;41.40
23475;DHT22;11910;52.086;21.066;2022-09-02T11:05:01;27.20;40.90
23475;DHT22;11910;52.086;21.066;2022-09-02T11:07:43;27.30;42.80
23475;DHT22;11910;52.086;21.066;2022-09-02T11:10:21;27.30;40.80
23475;DHT22;11910;52.086;21.066;2022-09-02T11:12:56;27.30;40.80
23475;DHT22;11910;52.086;21.066;2022-09-02T11:15:53;27.30;43.10
23475;DHT22;11910;52.086;21.066;2022-09-02T11:21:07;27.50;42.50
23475;DHT22;11910;52.086;21.066;2022-09-02T11:26:15;27.30;42.40
23475;DHT22;11910;52.086;21.066;2022-09-02T11:34:25;27.40;40.90
23475;DHT22;11910;52.086;21.066;2022-09-02T11:37:05;27.40;42.50
23475;DHT22;11910;52.086;21.066;2022-09-02T11:39:36;27.30;43.40
23475;DHT22;11910;52.086;21.066;2022-09-02T11:56:00;26.40;43.70
23475;DHT22;11910;52.086;21.066;2022-09-02T11:58:39;26.30;43.10
23475;DHT22;11910;52.086;21.066;2022-09-02T12:01:31;26.20;42.10
23475;DHT22;11910;52.086;21.066;2022-09-02T12:04:04;25.90;41.80
23475;DHT22;11910;52.086;21.066;2022-09-02T12:06:30;25.70;43.40
23475;DHT22;11910;52.086;21.066;2022-09-02T12:09:00;25.30;41.60
23475;DHT22;11910;52.086;21.066;2022-09-02T12:14:05;24.80;43.60
23475;DHT22;11910;52.086;21.066;2022-09-02T12:16:42;24.70;43.20
23475;DHT22;11910;52.086;21.066;2022-09-02T12:21:35;24.60;43.70
23475;DHT22;11910;52.086;21.066;2022-09-02T12:24:21;24.50;42.90
23475;DHT22;11910;52.086;21.066;2022-09-02T12:31:45;24.70;42.50
23475;DHT22;11910;52.086;21.066;2022-09-02T12:36:59;24.40;42.50
23475;DHT22;11910;52.086;21.066;2022-09-02T12:50:05;24.80;44.80
23475;DHT22;11910;52.086;21.066;2022-09-02T12:52:38;24.70;43.20
23475;DHT22;11910;52.086;21.066;2022-09-02T12:57:43;24.70;43.70
23475;DHT22;11910;52.086;21.066;2022-09-02T13:00:14;24.70;45.60
23475;DHT22;11910;52.086;21.066;2022-09-02T13:03:02;24.70;45.40
23475;DHT22;11910;52.086;21.066;2022-09-02T13:06:23;24.40;45.30
23475;DHT22;11910;52.086;21.066;2022-09-02T13:19:46;24.20;44.50
23475;DHT22;11910;52.086;21.066;2022-09-02T13:33:27;24.70;44.40
23475;DHT22;11910;52.086;21.066;2022-09-02T13:35:54;24.70;44.00
23475;DHT22;11910;52.086;21.066;2022-09-02T13:38:23;24.70;44.30
23475;DHT22;11910;52.086;21.066;2022-09-02T13:40:49;24.60;44.60
23475;DHT22;11910;52.086;21.066;2022-09-02T13:45:43;24.50;46.40
23475;DHT22;11910;52.086;21.066;2022-09-02T13:50:50;24.80;45.10
23475;DHT22;11910;52.086;21.066;2022-09-02T13:53:36;24.90;44.60
23475;DHT22;11910;52.086;21.066;2022-09-02T13:56:05;25.30;43.10
23475;DHT22;11910;52.086;21.066;2022-09-02T13:58:39;25.40;43.50
23475;DHT22;11910;52.086;21.066;2022-09-02T14:01:29;25.40;46.60
23475;DHT22;11910;52.086;21.066;2022-09-02T14:03:58;25.40;48.40
23475;DHT22;11910;52.086;21.066;2022-09-02T14:06:28;25.20;43.10
23475;DHT22;11910;52.086;21.066;2022-09-02T14:08:57;24.80;42.10
23475;DHT22;11910;52.086;21.066;2022-09-02T14:11:25;24.40;43.30
23475;DHT22;11910;52.086;21.066;2022-09-02T14:13:52;24.20;42.90
23475;DHT22;11910;52.086;21.066;2022-09-02T14:21:32;23.20;44.80
23475;DHT22;11910;52.086;21.066;2022-09-02T14:23:58;22.90;53.50
23475;DHT22;11910;52.086;21.066;2022-09-02T14:26:35;22.60;55.50
23475;DHT22;11910;52.086;21.066;2022-09-02T14:29:04;22.30;57.30
23475;DHT22;11910;52.086;21.066;2022-09-02T14:31:30;22.20;53.90
23475;DHT22;11910;52.086;21.066;2022-09-02T14:33:59;22.20;54.30
23475;DHT22;11910;52.086;21.066;2022-09-02T14:36:36;22.30;56.00
23475;DHT22;11910;52.086;21.066;2022-09-02T14:39:14;22.30;54.10
23475;DHT22;11910;52.086;21.066;2022-09-02T14:41:51;22.30;51.70
23475;DHT22;11910;52.086;21.066;2022-09-02T14:46:55;22.20;53.90
23475;DHT22;11910;52.086;21.066;2022-09-02T14:49:27;22.20;55.00
23475;DHT22;11910;52.086;21.066;2022-09-02T14:51:54;22.10;53.70
23475;DHT22;11910;52.086;21.066;2022-09-02T14:54:41;22.00;55.20
23475;DHT22;11910;52.086;21.066;2022-09-02T14:57:27;21.80;54.20
23475;DHT22;11910;52.086;21.066;2022-09-02T14:59:55;21.80;57.10
23475;DHT22;11910;52.086;21.066;2022-09-02T15:04:50;21.80;54.20
23475;DHT22;11910;52.086;21.066;2022-09-02T15:07:16;21.70;57.70
23475;DHT22;11910;52.086;21.066;2022-09-02T15:09:42;21.70;55.60
23475;DHT22;11910;52.086;21.066;2022-09-02T15:12:12;21.50;54.00
23475;DHT22;11910;52.086;21.066;2022-09-02T15:14:38;21.50;52.70
23475;DHT22;11910;52.086;21.066;2022-09-02T15:17:07;21.40;51.80
23475;DHT22;11910;52.086;21.066;2022-09-02T15:19:34;21.40;53.20
23475;DHT22;11910;52.086;21.066;2022-09-02T15:21:59;21.40;51.70
23475;DHT22;11910;52.086;21.066;2022-09-02T15:24:25;21.20;51.50
23475;DHT22;11910;52.086;21.066;2022-09-02T15:26:51;21.10;51.30
23475;DHT22;11910;52.086;21.066;2022-09-02T15:29:17;21.10;53.50
23475;DHT22;11910;52.086;21.066;2022-09-02T15:31:43;21.00;52.50
23475;DHT22;11910;52.086;21.066;2022-09-02T15:34:10;20.90;53.80
23475;DHT22;11910;52.086;21.066;2022-09-02T15:36:36;20.80;54.30
23475;DHT22;11910;52.086;21.066;2022-09-02T15:39:02;20.70;52.10
23475;DHT22;11910;52.086;21.066;2022-09-02T15:41:27;20.60;52.50
23475;DHT22;11910;52.086;21.066;2022-09-02T15:43:56;20.60;53.10
23475;DHT22;11910;52.086;21.066;2022-09-02T15:46:27;20.50;53.80
23475;DHT22;11910;52.086;21.066;2022-09-02T15:48:55;20.50;56.50
23475;DHT22;11910;52.086;21.066;2022-09-02T15:51:22;20.30;54.80
23475;DHT22;11910;52.086;21.066;2022-09-02T15:53:59;20.30;53.60
23475;DHT22;11910;52.086;21.066;2022-09-02T15:56:27;20.20;54.60
23475;DHT22;11910;52.086;21.066;2022-09-02T15:58:59;20.10;57.00
23475;DHT22;11910;52.086;21.066;2022-09-02T16:01:30;20.10;57.80
23475;DHT22;11910;52.086;21.066;2022-09-02T16:03:56;20.10;62.30
23475;DHT22;11910;52.086;21.066;2022-09-02T16:06:23;20.00;60.30
23475;DHT22;11910;52.086;21.066;2022-09-02T16:08:49;20.00;59.40
23475;DHT22;11910;52.086;21.066;2022-09-02T16:11:15;20.00;59.50
23475;DHT22;11910;52.086;21.066;2022-09-02T16:13:41;20.00;60.10
23475;DHT22;11910;52.086;21.066;2022-09-02T16:16:09;19.90;57.00
23475;DHT22;11910;52.086;21.066;2022-09-02T16:18:37;19.90;56.40
23475;DHT22;11910;52.086;21.066;2022-09-02T16:21:04;20.00;59.40
23475;DHT22;11910;52.086;21.066;2022-09-02T16:23:31;20.10;58.50
23475;DHT22;11910;52.086;21.066;2022-09-02T16:26:22;20.10;57.90
23475;DHT22;11910;52.086;21.066;2022-09-02T16:28:50;20.00;58.40
23475;DHT22;11910;52.086;21.066;2022-09-02T16:31:18;20.00;57.70
23475;DHT22;11910;52.086;21.066;2022-09-02T16:34:00;20.10;57.40
23475;DHT22;11910;52.086;21.066;2022-09-02T16:36:28;20.10;57.60
23475;DHT22;11910;52.086;21.066;2022-09-02T16:38:54;20.00;57.60
23475;DHT22;11910;52.086;21.066;2022-09-02T16:41:35;20.00;59.20
23475;DHT22;11910;52.086;21.066;2022-09-02T16:44:04;19.90;59.90
23475;DHT22;11910;52.086;21.066;2022-09-02T16:46:31;19.80;60.10
23475;DHT22;11910;52.086;21.066;2022-09-02T16:48:57;19.70;61.90
23475;DHT22;11910;52.086;21.066;2022-09-02T16:51:24;19.50;65.80
23475;DHT22;11910;52.086;21.066;2022-09-02T16:53:58;19.30;66.30
23475;DHT22;11910;52.086;21.066;2022-09-02T16:56:24;19.20;68.10
23475;DHT22;11910;52.086;21.066;2022-09-02T16:58:51;18.90;68.20
23475;DHT22;11910;52.086;21.066;2022-09-02T17:01:18;18.70;69.20
23475;DHT22;11910;52.086;21.066;2022-09-02T17:03:44;18.60;71.10
23475;DHT22;11910;52.086;21.066;2022-09-02T17:06:11;18.40;70.90
23475;DHT22;11910;52.086;21.066;2022-09-02T17:08:37;18.20;69.50
23475;DHT22;11910;52.086;21.066;2022-09-02T17:13:40;17.90;70.00
23475;DHT22;11910;52.086;21.066;2022-09-02T17:16:06;17.70;70.10
23475;DHT22;11910;52.086;21.066;2022-09-02T17:18:33;17.50;72.00
23475;DHT22;11910;52.086;21.066;2022-09-02T17:21:35;17.40;73.30
23475;DHT22;11910;52.086;21.066;2022-09-02T17:24:00;17.20;73.50
23475;DHT22;11910;52.086;21.066;2022-09-02T17:26:27;17.00;74.00
23475;DHT22;11910;52.086;21.066;2022-09-02T17:28:54;16.80;74.20
23475;DHT22;11910;52.086;21.066;2022-09-02T17:33:48;16.50;73.90
23475;DHT22;11910;52.086;21.066;2022-09-02T17:36:14;16.40;76.30
23475;DHT22;11910;52.086;21.066;2022-09-02T17:38:40;16.30;74.00
23475;DHT22;11910;52.086;21.066;2022-09-02T17:41:07;16.10;72.60
23475;DHT22;11910;52.086;21.066;2022-09-02T17:43:51;16.00;72.80
23475;DHT22;11910;52.086;21.066;2022-09-02T17:46:17;15.80;75.80
23475;DHT22;11910;52.086;21.066;2022-09-02T17:48:43;15.70;76.00
23475;DHT22;11910;52.086;21.066;2022-09-02T17:51:08;15.60;76.30
23475;DHT22;11910;52.086;21.066;2022-09-02T17:53:34;15.50;75.20
23475;DHT22;11910;52.086;21.066;2022-09-02T18:10:41;14.80;78.40